createdAt,value
2022-10-22T00:01:42.073Z,99612.34
2022-10-22T00:04:08.725Z,99601.63
2022-10-22T00:06:35.421Z,99605.81
2022-10-22T00:09:02.152Z,99597.78
2022-10-22T00:11:28.982Z,99609.31
2022-10-22T00:13:55.759Z,99636.25
2022-10-22T00:16:22.426Z,99635.94
2022-10-22T00:18:49.305Z,99611.50
2022-10-22T00:21:15.988Z,99600.63
2022-10-22T00:23:43.378Z,99599.63
2022-10-22T00:26:10.942Z,99604.16
2022-10-22T00:28:37.695Z,99611.16
2022-10-22T00:31:04.485Z,99605.97
2022-10-22T00:33:31.394Z,99605.66
2022-10-22T00:35:58.448Z,99600.47
2022-10-22T00:38:25.157Z,99601.63
2022-10-22T00:40:52.094Z,99599.97
2022-10-22T00:43:20.012Z,99600.97
2022-10-22T00:45:47.191Z,99605.66
2022-10-22T00:48:21.069Z,99616.69
2022-10-22T00:50:51.949Z,99625.53
2022-10-22T00:53:35.411Z,99637.59
2022-10-22T00:56:02.366Z,99638.09
2022-10-22T00:58:31.422Z,99645.13
2022-10-22T01:00:58.363Z,99659.47
2022-10-22T01:03:25.194Z,99662.34
2022-10-22T01:05:57.741Z,99675.03
2022-10-22T01:08:36.528Z,99669.03
2022-10-22T01:11:22.205Z,99659.00
2022-10-22T01:13:55.220Z,99665.34
2022-10-22T01:16:30.793Z,99663.53
2022-10-22T01:19:25.214Z,99654.84
2022-10-22T01:22:09.296Z,99648.16
2022-10-22T01:24:41.218Z,99639.75
2022-10-22T01:27:26.530Z,99631.94
2022-10-22T01:29:57.866Z,99629.25
2022-10-22T01:32:26.603Z,99633.44
2022-10-22T01:34:57.573Z,99628.44
2022-10-22T01:37:28.866Z,99636.75
2022-10-22T01:39:57.939Z,99630.44
2022-10-22T01:42:24.726Z,99627.91
2022-10-22T01:44:51.443Z,99626.41
2022-10-22T01:47:40.024Z,99626.75
2022-10-22T01:50:31.542Z,99638.28
2022-10-22T01:53:13.877Z,99640.63
2022-10-22T01:55:48.155Z,99635.59
2022-10-22T01:58:41.153Z,99645.81
2022-10-22T02:01:31.894Z,99657.50
2022-10-22T02:04:06.650Z,99666.69
2022-10-22T02:06:33.895Z,99667.69
2022-10-22T02:09:00.960Z,99673.72
2022-10-22T02:11:27.658Z,99677.72
2022-10-22T02:13:57.030Z,99677.91
2022-10-22T02:16:50.165Z,99678.06
2022-10-22T02:19:25.613Z,99668.88
2022-10-22T02:21:53.017Z,99671.88
2022-10-22T02:24:20.109Z,99679.06
2022-10-22T02:27:10.333Z,99671.03
2022-10-22T02:29:41.162Z,99671.72
2022-10-22T02:32:09.775Z,99674.22
2022-10-22T02:34:36.435Z,99672.38
2022-10-22T02:37:03.554Z,99664.19
2022-10-22T02:39:31.631Z,99667.53
2022-10-22T02:41:58.326Z,99659.84
2022-10-22T02:44:25.093Z,99644.47
2022-10-22T02:46:51.951Z,99636.44
2022-10-22T02:49:18.747Z,99629.44
2022-10-22T02:51:45.597Z,99640.97
2022-10-22T02:54:12.399Z,99634.09
2022-10-22T02:56:39.087Z,99633.13
2022-10-22T02:59:05.720Z,99625.59
2022-10-22T03:01:32.374Z,99618.75
2022-10-22T03:03:59.028Z,99624.09
2022-10-22T03:08:57.490Z,99610.06
2022-10-22T03:11:24.182Z,99594.84
2022-10-22T03:13:50.946Z,99594.84
2022-10-22T03:16:17.626Z,99588.69
2022-10-22T03:18:44.313Z,99587.66
2022-10-22T03:21:15.704Z,99592.88
2022-10-22T03:23:42.750Z,99627.09
2022-10-22T03:26:10.699Z,99652.00
2022-10-22T03:28:38.370Z,99638.78
2022-10-22T03:31:05.058Z,99656.50
2022-10-22T03:33:31.739Z,99642.28
2022-10-22T03:35:58.461Z,99639.63
2022-10-22T03:38:25.364Z,99637.78
2022-10-22T03:40:52.206Z,99653.31
2022-10-22T03:43:18.846Z,99659.50
2022-10-22T03:45:45.528Z,99647.31
2022-10-22T03:48:12.174Z,99636.47
2022-10-22T03:50:38.822Z,99628.59
2022-10-22T03:53:07.088Z,99626.94
2022-10-22T03:55:33.794Z,99632.09
2022-10-22T03:58:00.663Z,99650.66
2022-10-22T04:00:27.327Z,99649.31
2022-10-22T04:02:54.132Z,99655.81
2022-10-22T04:05:20.797Z,99670.19
2022-10-22T04:07:47.475Z,99668.34
2022-10-22T04:10:14.144Z,99683.56
2022-10-22T04:12:40.834Z,99681.72
2022-10-22T04:15:08.205Z,99680.91
2022-10-22T04:17:35.808Z,99700.63
2022-10-22T04:20:03.979Z,99705.44
2022-10-22T04:22:33.542Z,99716.63
2022-10-22T04:25:00.435Z,99717.28
2022-10-22T04:27:31.085Z,99731.47
2022-10-22T04:29:57.805Z,99733.19
2022-10-22T04:32:25.367Z,99731.00
2022-10-22T04:34:52.026Z,99726.31
2022-10-22T04:37:18.642Z,99737.28
2022-10-22T04:39:45.255Z,99733.47
2022-10-22T04:42:12.744Z,99735.31
2022-10-22T04:44:39.395Z,99733.44
2022-10-22T04:47:06.070Z,99741.44
2022-10-22T04:49:32.713Z,99748.28
2022-10-22T04:51:59.410Z,99743.44
2022-10-22T04:54:29.026Z,99752.81
2022-10-22T04:56:59.142Z,99745.47
2022-10-22T04:59:25.875Z,99755.63
2022-10-22T05:01:52.580Z,99748.28
2022-10-22T05:04:19.668Z,99734.94
2022-10-22T05:06:46.909Z,99747.09
2022-10-22T05:09:16.489Z,99746.22
2022-10-22T05:11:48.783Z,99750.72
2022-10-22T05:14:18.124Z,99749.22
2022-10-22T05:16:47.665Z,99745.25
2022-10-22T05:19:25.869Z,99746.88
2022-10-22T05:21:54.170Z,99751.22
2022-10-22T05:24:21.178Z,99756.06
2022-10-22T05:26:51.755Z,99757.34
2022-10-22T05:29:18.589Z,99763.22
2022-10-22T05:31:45.353Z,99763.06
2022-10-22T05:34:12.611Z,99756.88
2022-10-22T05:36:39.390Z,99765.56
2022-10-22T05:39:06.276Z,99769.41
2022-10-22T05:41:33.693Z,99767.88
2022-10-22T05:44:00.615Z,99774.38
2022-10-22T05:46:29.542Z,99780.72
2022-10-22T05:48:59.141Z,99782.03
2022-10-22T05:51:27.896Z,99776.69
2022-10-22T05:53:58.551Z,99783.06
2022-10-22T05:56:26.509Z,99791.22
2022-10-22T05:58:53.292Z,99791.34
2022-10-22T06:01:22.617Z,99795.50
2022-10-22T06:03:49.915Z,99799.53
2022-10-22T06:06:29.119Z,99803.44
2022-10-22T06:08:56.459Z,99801.63
2022-10-22T06:11:23.913Z,99802.47
2022-10-22T06:13:50.924Z,99807.69
2022-10-22T06:16:18.873Z,99818.56
2022-10-22T06:18:45.529Z,99819.66
2022-10-22T06:21:14.001Z,99829.69
2022-10-22T06:23:41.543Z,99824.97
2022-10-22T06:26:08.858Z,99832.84
2022-10-22T06:28:35.858Z,99849.69
2022-10-22T06:31:03.515Z,99858.53
2022-10-22T06:33:32.297Z,99868.38
2022-10-22T06:36:09.911Z,99873.97
2022-10-22T06:38:36.620Z,99874.84
2022-10-22T06:41:08.417Z,99872.31
2022-10-22T06:43:35.492Z,99883.69
2022-10-22T06:46:04.006Z,99875.88
2022-10-22T06:48:30.756Z,99892.25
2022-10-22T06:51:02.057Z,99887.88
2022-10-22T06:53:28.909Z,99898.94
2022-10-22T06:55:55.586Z,99901.59
2022-10-22T06:58:22.284Z,99902.44
2022-10-22T07:00:48.935Z,99902.28
2022-10-22T07:03:15.843Z,99909.31
2022-10-22T07:05:42.491Z,99912.28
2022-10-22T07:08:09.173Z,99903.59
2022-10-22T07:10:35.843Z,99916.66
2022-10-22T07:13:02.507Z,99914.56
2022-10-22T07:15:29.245Z,99911.13
2022-10-22T07:17:55.877Z,99906.66
2022-10-22T07:20:22.569Z,99914.25
2022-10-22T07:22:49.234Z,99918.94
2022-10-22T07:25:15.905Z,99919.91
2022-10-22T07:27:42.812Z,99925.63
2022-10-22T07:30:09.994Z,99930.28
2022-10-22T07:32:37.093Z,99931.97
2022-10-22T07:35:04.895Z,99937.91
2022-10-22T07:37:31.517Z,99940.31
2022-10-22T07:40:02.742Z,99936.63
2022-10-22T07:45:02.467Z,99938.59
2022-10-22T07:47:29.136Z,99952.63
2022-10-22T07:49:55.795Z,99955.44
2022-10-22T07:52:22.415Z,99961.66
2022-10-22T07:54:49.041Z,99956.50
2022-10-22T07:57:15.708Z,99957.06
2022-10-22T07:59:42.384Z,99960.47
2022-10-22T08:02:10.031Z,99954.34
2022-10-22T08:04:36.687Z,99955.25
2022-10-22T08:07:03.323Z,99955.13
2022-10-22T08:09:30.011Z,99959.84
2022-10-22T08:11:56.825Z,99963.56
2022-10-22T08:14:23.523Z,99955.63
2022-10-22T08:16:50.208Z,99964.19
2022-10-22T08:19:21.207Z,99957.50
2022-10-22T08:21:47.889Z,99961.19
2022-10-22T08:24:14.837Z,99964.69
2022-10-22T08:26:41.887Z,99957.50
2022-10-22T08:29:08.585Z,99956.03
2022-10-22T08:31:35.487Z,99960.59
2022-10-22T08:34:02.149Z,99961.44
2022-10-22T08:36:28.794Z,99958.28
2022-10-22T08:38:55.421Z,99959.47
2022-10-22T08:41:23.874Z,99964.34
2022-10-22T08:44:15.154Z,99959.00
2022-10-22T08:47:18.652Z,99957.63
2022-10-22T08:49:48.169Z,99960.84
2022-10-22T08:52:17.297Z,99961.34
2022-10-22T08:54:52.520Z,99963.88
2022-10-22T08:57:48.716Z,99972.59
2022-10-22T09:00:18.301Z,99975.91
2022-10-22T09:02:57.159Z,99976.44
2022-10-22T09:05:32.532Z,99978.28
2022-10-22T09:07:59.192Z,99975.09
2022-10-22T09:10:29.746Z,99976.47
2022-10-22T09:12:56.428Z,99975.44
2022-10-22T09:15:23.090Z,99973.47
2022-10-22T09:18:26.829Z,99979.28
2022-10-22T09:20:54.791Z,99980.78
2022-10-22T09:23:24.364Z,99980.66
2022-10-22T09:25:52.026Z,99986.03
2022-10-22T09:28:18.925Z,99991.72
2022-10-22T09:30:45.844Z,99991.25
2022-10-22T09:33:14.149Z,99997.28
2022-10-22T09:36:03.431Z,99996.94
2022-10-22T09:38:32.774Z,100003.66
2022-10-22T09:41:01.264Z,100000.50
2022-10-22T09:43:28.112Z,100011.72
2022-10-22T09:46:00.395Z,100015.44
2022-10-22T09:48:39.255Z,100012.38
2022-10-22T09:51:15.066Z,100006.38
2022-10-22T09:53:43.809Z,100018.78
2022-10-22T09:56:35.407Z,100023.38
2022-10-22T09:59:02.453Z,100019.44
2022-10-22T10:01:32.838Z,100029.16
2022-10-22T10:04:08.424Z,100037.69
2022-10-22T10:06:39.315Z,100027.66
2022-10-22T10:09:25.824Z,100029.16
2022-10-22T10:12:02.709Z,100036.19
2022-10-22T10:14:43.200Z,100022.50
2022-10-22T10:17:28.200Z,100033.19
2022-10-22T10:20:16.155Z,100034.38
2022-10-22T10:22:51.713Z,100033.53
2022-10-22T10:25:24.484Z,100031.34
2022-10-22T10:28:09.693Z,100023.16
2022-10-22T10:30:49.353Z,100033.19
2022-10-22T10:33:37.168Z,100032.72
2022-10-22T10:36:25.477Z,100020.63
2022-10-22T10:39:37.270Z,100026.84
2022-10-22T10:42:31.212Z,100028.38
2022-10-22T10:45:01.054Z,100030.84
2022-10-22T10:47:45.635Z,100031.88
2022-10-22T10:50:29.319Z,100031.03
2022-10-22T10:53:12.512Z,100028.69
2022-10-22T10:55:55.204Z,100026.84
2022-10-22T10:58:35.927Z,100030.88
2022-10-22T11:01:27.921Z,100028.69
2022-10-22T11:04:11.145Z,100023.66
2022-10-22T11:06:39.558Z,100030.34
2022-10-22T11:09:14.841Z,100024.47
2022-10-22T11:11:48.456Z,100027.16
2022-10-22T11:14:24.221Z,100025.81
2022-10-22T11:17:26.009Z,100022.97
2022-10-22T11:20:07.949Z,100029.16
2022-10-22T11:22:44.474Z,100027.50
2022-10-22T11:25:28.589Z,100020.44
2022-10-22T11:28:09.129Z,100020.75
2022-10-22T11:30:38.315Z,100016.59
2022-10-22T11:33:11.789Z,100023.75
2022-10-22T11:35:44.354Z,100028.81
2022-10-22T11:38:16.755Z,100022.28
2022-10-22T11:40:52.317Z,100017.56
2022-10-22T11:43:35.540Z,100018.25
2022-10-22T11:46:05.004Z,100017.22
2022-10-22T11:48:36.792Z,100012.69
2022-10-22T11:51:04.262Z,100013.69
2022-10-22T11:53:36.047Z,100010.81
2022-10-22T11:56:12.996Z,99995.38
2022-10-22T11:58:44.790Z,99991.34
2022-10-22T12:01:11.408Z,99991.66
2022-10-22T12:03:44.232Z,99987.13
2022-10-22T12:06:15.650Z,99996.41
2022-10-22T12:08:50.142Z,99995.50
2022-10-22T12:11:26.605Z,99997.47
2022-10-22T12:14:14.948Z,99989.72
2022-10-22T12:16:56.578Z,100000.97
2022-10-22T12:19:37.157Z,99994.41
2022-10-22T12:22:06.562Z,99999.72
2022-10-22T12:24:41.984Z,100001.06
2022-10-22T12:27:22.789Z,99996.56
2022-10-22T12:29:57.717Z,99992.34
2022-10-22T12:32:33.013Z,99987.28
2022-10-22T12:35:06.345Z,99992.13
2022-10-22T12:37:35.438Z,99976.47
2022-10-22T12:40:02.202Z,99977.97
2022-10-22T12:42:30.070Z,99979.81
2022-10-22T12:44:56.722Z,99980.84
2022-10-22T12:47:23.458Z,99974.44
2022-10-22T12:49:50.699Z,99979.28
2022-10-22T12:52:20.650Z,99966.84
2022-10-22T12:54:50.246Z,99968.34
2022-10-22T12:57:18.794Z,99962.00
2022-10-22T12:59:49.983Z,99968.03
2022-10-22T13:02:25.497Z,99970.72
2022-10-22T13:05:13.448Z,99973.72
2022-10-22T13:07:43.254Z,99968.81
2022-10-22T13:10:25.195Z,99971.19
2022-10-22T13:12:55.938Z,99976.88
2022-10-22T13:15:42.989Z,99975.06
2022-10-22T13:18:19.083Z,99982.75
2022-10-22T13:20:58.843Z,99983.56
2022-10-22T13:23:27.155Z,99981.09
2022-10-22T13:26:10.586Z,99957.81
2022-10-22T13:28:37.247Z,99964.31
2022-10-22T13:31:16.070Z,99964.38
2022-10-22T13:33:45.281Z,99969.38
2022-10-22T13:36:14.646Z,99965.88
2022-10-22T13:38:42.089Z,99958.63
2022-10-22T13:41:26.598Z,99969.25
2022-10-22T13:43:54.223Z,99964.69
2022-10-22T13:46:21.639Z,99970.88
2022-10-22T13:48:50.029Z,99964.47
2022-10-22T13:51:18.962Z,99959.09
2022-10-22T13:53:46.433Z,99966.16
2022-10-22T13:56:15.553Z,99955.59
2022-10-22T13:58:43.574Z,99967.34
2022-10-22T14:01:27.183Z,99965.56
2022-10-22T14:03:57.922Z,99962.34
2022-10-22T14:06:25.579Z,99964.38
2022-10-22T14:09:11.927Z,99965.94
2022-10-22T14:11:38.768Z,99962.06
2022-10-22T14:14:08.772Z,99970.44
2022-10-22T14:16:37.022Z,99966.25
2022-10-22T14:19:03.840Z,99955.88
2022-10-22T14:21:34.576Z,99953.72
2022-10-22T14:24:01.226Z,99956.59
2022-10-22T14:26:32.936Z,99962.97
2022-10-22T14:29:15.964Z,99961.31
2022-10-22T14:31:44.390Z,99965.34
2022-10-22T14:34:12.963Z,99966.19
2022-10-22T14:36:39.644Z,99972.41
2022-10-22T14:39:06.320Z,99979.78
2022-10-22T14:41:33.107Z,99974.44
2022-10-22T14:43:59.835Z,99974.44
2022-10-22T14:46:26.663Z,99977.09
2022-10-22T14:48:53.275Z,99970.06
2022-10-22T14:51:21.568Z,99980.78
2022-10-22T14:53:48.681Z,99977.28
2022-10-22T14:56:17.690Z,99980.97
2022-10-22T14:58:45.484Z,99976.59
2022-10-22T15:01:12.504Z,99980.31
2022-10-22T15:03:39.228Z,99978.81
2022-10-22T15:06:06.257Z,99986.03
2022-10-22T15:08:33.057Z,99979.19
2022-10-22T15:11:03.903Z,99982.22
2022-10-22T15:13:31.433Z,99988.56
2022-10-22T15:15:58.087Z,99991.47
2022-10-22T15:18:25.254Z,99993.13
2022-10-22T15:20:59.633Z,99992.13
2022-10-22T15:23:26.783Z,99990.13
2022-10-22T15:25:54.182Z,99992.97
2022-10-22T15:28:21.062Z,99986.78
2022-10-22T15:30:55.817Z,99984.78
2022-10-22T15:33:22.907Z,99989.66
2022-10-22T15:35:49.607Z,99987.97
2022-10-22T15:38:16.709Z,99989.66
2022-10-22T15:40:43.534Z,99990.47
2022-10-22T15:43:10.254Z,99988.78
2022-10-22T15:45:37.028Z,99987.13
2022-10-22T15:48:04.145Z,99992.66
2022-10-22T15:50:30.790Z,99993.69
2022-10-22T15:52:57.609Z,99991.88
2022-10-22T15:55:24.407Z,99991.03
2022-10-22T15:57:57.120Z,99999.44
2022-10-22T16:00:26.114Z,99996.25
2022-10-22T16:02:54.071Z,100000.94
2022-10-22T16:05:20.918Z,100004.81
2022-10-22T16:07:47.632Z,100004.31
2022-10-22T16:10:14.319Z,100001.16
2022-10-22T16:12:41.515Z,99995.97
2022-10-22T16:15:09.362Z,99995.47
2022-10-22T16:17:36.051Z,99995.75
2022-10-22T16:20:03.085Z,99995.28
2022-10-22T16:22:29.789Z,99996.63
2022-10-22T16:24:56.469Z,99996.63
2022-10-22T16:27:23.101Z,99996.31
2022-10-22T16:29:49.747Z,99992.47
2022-10-22T16:32:16.779Z,99994.81
2022-10-22T16:34:43.565Z,99992.13
2022-10-22T16:37:10.508Z,99992.50
2022-10-22T16:39:37.408Z,99995.31
2022-10-22T16:42:04.142Z,100003.72
2022-10-22T16:44:30.901Z,100009.22
2022-10-22T16:46:57.559Z,100007.72
2022-10-22T16:49:24.352Z,100006.91
2022-10-22T16:51:51.116Z,100006.91
2022-10-22T16:54:17.964Z,100016.13
2022-10-22T16:56:44.588Z,100023.00
2022-10-22T16:59:11.357Z,100027.69
2022-10-22T17:01:40.915Z,100029.53
2022-10-22T17:04:08.134Z,100024.66
2022-10-22T17:06:34.803Z,100029.19
2022-10-22T17:09:01.636Z,100033.19
2022-10-22T17:11:34.613Z,100039.22
2022-10-22T17:14:02.320Z,100042.59
2022-10-22T17:16:29.211Z,100042.75
2022-10-22T17:18:56.476Z,100044.25
2022-10-22T17:21:23.397Z,100045.09
2022-10-22T17:23:54.764Z,100043.09
2022-10-22T17:26:22.673Z,100045.09
2022-10-22T17:28:49.869Z,100043.56
2022-10-22T17:31:20.381Z,100048.25
2022-10-22T17:33:48.610Z,100051.63
2022-10-22T17:36:16.654Z,100051.81
2022-10-22T17:38:45.298Z,100054.28
2022-10-22T17:41:17.702Z,100059.66
2022-10-22T17:46:23.777Z,100066.84
2022-10-22T17:48:51.767Z,100061.66
2022-10-22T17:51:19.404Z,100068.34
2022-10-22T17:53:46.537Z,100064.81
2022-10-22T17:56:15.283Z,100066.16
2022-10-22T17:58:42.070Z,100070.84
2022-10-22T18:01:26.095Z,100076.50
2022-10-22T18:03:54.118Z,100078.19
2022-10-22T18:06:21.373Z,100080.19
2022-10-22T18:08:48.153Z,100079.69
2022-10-22T18:11:18.394Z,100077.69
2022-10-22T18:13:49.226Z,100079.34
2022-10-22T18:16:15.873Z,100075.66
2022-10-22T18:18:46.028Z,100072.94
2022-10-22T18:21:12.846Z,100072.78
2022-10-22T18:23:39.508Z,100082.63
2022-10-22T18:26:06.344Z,100080.13
2022-10-22T18:28:33.273Z,100081.09
2022-10-22T18:31:00.101Z,100076.28
2022-10-22T18:33:26.817Z,100077.59
2022-10-22T18:35:53.788Z,100073.59
2022-10-22T18:38:23.812Z,100076.66
2022-10-22T18:40:50.571Z,100074.66
2022-10-22T18:43:17.856Z,100075.34
2022-10-22T18:45:46.054Z,100068.47
2022-10-22T18:48:14.470Z,100067.28
2022-10-22T18:50:41.194Z,100073.16
2022-10-22T18:53:07.854Z,100067.97
2022-10-22T18:55:35.463Z,100066.41
2022-10-22T18:58:02.215Z,100062.56
2022-10-22T19:00:28.876Z,100063.19
2022-10-22T19:02:55.544Z,100062.84
2022-10-22T19:05:22.442Z,100055.66
2022-10-22T19:07:50.040Z,100063.00
2022-10-22T19:10:17.464Z,100061.50
2022-10-22T19:12:44.173Z,100062.47
2022-10-22T19:15:11.282Z,100051.28
2022-10-22T19:17:37.925Z,100057.47
2022-10-22T19:20:05.615Z,100059.31
2022-10-22T19:22:32.432Z,100056.63
2022-10-22T19:24:59.116Z,100053.44
2022-10-22T19:27:25.807Z,100061.81
2022-10-22T19:29:52.461Z,100058.63
2022-10-22T19:32:20.183Z,100061.78
2022-10-22T19:34:47.163Z,100065.78
2022-10-22T19:37:14.023Z,100067.31
2022-10-22T19:39:40.839Z,100074.44
2022-10-22T19:42:07.525Z,100075.13
2022-10-22T19:44:34.362Z,100072.44
2022-10-22T19:47:01.213Z,100072.28
2022-10-22T19:49:27.874Z,100064.41
2022-10-22T19:51:54.550Z,100066.41
2022-10-22T19:54:21.273Z,100061.06
2022-10-22T19:56:48.767Z,100071.09
2022-10-22T19:59:16.717Z,100072.28
2022-10-22T20:01:43.517Z,100069.88
2022-10-22T20:04:15.164Z,100077.41
2022-10-22T20:06:42.463Z,100076.75
2022-10-22T20:09:11.266Z,100074.94
2022-10-22T20:11:38.086Z,100066.22
2022-10-22T20:14:04.777Z,100072.28
2022-10-22T20:16:31.695Z,100073.25
2022-10-22T20:19:03.646Z,100083.59
2022-10-22T20:21:30.730Z,100083.44
2022-10-22T20:23:57.670Z,100081.94
2022-10-22T20:26:27.759Z,100081.09
2022-10-22T20:28:56.079Z,100078.09
2022-10-22T20:31:24.954Z,100084.47
2022-10-22T20:33:51.718Z,100091.13
2022-10-22T20:36:20.409Z,100099.66
2022-10-22T20:38:48.320Z,100096.81
2022-10-22T20:41:21.036Z,100104.63
2022-10-22T20:43:50.270Z,100113.66
2022-10-22T20:46:31.668Z,100108.03
2022-10-22T20:49:04.934Z,100101.44
2022-10-22T20:51:31.974Z,100102.41
2022-10-22T20:53:59.025Z,100094.75
2022-10-22T20:56:26.055Z,100093.94
2022-10-22T20:59:03.927Z,100098.44
2022-10-22T21:01:40.140Z,100095.03
2022-10-22T21:04:07.247Z,100094.75
2022-10-22T21:06:37.801Z,100098.75
2022-10-22T21:09:08.686Z,100096.03
2022-10-22T21:11:36.639Z,100087.53
2022-10-22T21:14:04.530Z,100097.72
2022-10-22T21:16:31.175Z,100096.88
2022-10-22T21:18:57.847Z,100080.63
2022-10-22T21:21:24.577Z,100074.44
2022-10-22T21:23:51.748Z,100068.63
2022-10-22T21:26:19.653Z,100072.13
2022-10-22T21:28:46.601Z,100067.47
2022-10-22T21:31:20.082Z,100067.25
2022-10-22T21:33:47.041Z,100065.59
2022-10-22T21:36:13.681Z,100075.91
2022-10-22T21:38:40.567Z,100071.41
2022-10-22T21:41:09.932Z,100078.22
2022-10-22T21:43:37.218Z,100072.88
2022-10-22T21:46:19.123Z,100067.09
2022-10-22T21:48:46.162Z,100072.66
2022-10-22T21:51:18.695Z,100075.69
2022-10-22T21:53:45.828Z,100070.66
2022-10-22T21:56:27.399Z,100076.63
2022-10-22T21:58:54.503Z,100068.59
2022-10-22T22:01:22.019Z,100075.66
2022-10-22T22:03:49.805Z,100076.25
2022-10-22T22:06:21.243Z,100080.63
2022-10-22T22:08:49.574Z,100081.09
2022-10-22T22:11:19.233Z,100060.84
2022-10-22T22:13:47.331Z,100069.69
2022-10-22T22:16:16.899Z,100072.53
2022-10-22T22:18:43.682Z,100072.19
2022-10-22T22:21:13.465Z,100077.63
2022-10-22T22:23:43.123Z,100077.34
2022-10-22T22:26:10.034Z,100079.47
2022-10-22T22:28:37.370Z,100076.38
2022-10-22T22:31:25.191Z,100078.56
2022-10-22T22:34:00.018Z,100078.72
2022-10-22T22:36:26.726Z,100078.94
2022-10-22T22:38:56.997Z,100090.25
2022-10-22T22:41:23.697Z,100088.94
2022-10-22T22:43:51.181Z,100081.22
2022-10-22T22:46:17.969Z,100085.72
2022-10-22T22:48:47.731Z,100085.53
2022-10-22T22:51:14.407Z,100084.53
2022-10-22T22:53:41.197Z,100070.16
2022-10-22T22:56:13.178Z,100081.47
2022-10-22T22:58:40.815Z,100075.13
2022-10-22T23:01:16.470Z,100067.28
2022-10-22T23:03:44.821Z,100074.84
2022-10-22T23:06:12.379Z,100066.97
2022-10-22T23:08:39.206Z,100072.00
2022-10-22T23:11:11.101Z,100064.28
2022-10-22T23:13:38.381Z,100057.56
2022-10-22T23:16:10.245Z,100073.53
2022-10-22T23:18:36.971Z,100060.56
2022-10-22T23:21:11.306Z,100052.84
2022-10-22T23:23:38.132Z,100057.06
2022-10-22T23:26:04.902Z,100049.28
2022-10-22T23:28:31.619Z,100054.91
2022-10-22T23:30:58.583Z,100055.06
2022-10-22T23:33:25.281Z,100054.91
2022-10-22T23:35:52.108Z,100053.38
2022-10-22T23:38:19.017Z,100054.00
2022-10-22T23:40:45.691Z,100061.97
2022-10-22T23:43:12.481Z,100057.13
2022-10-22T23:45:39.157Z,100059.97
2022-10-22T23:48:06.164Z,100056.44
2022-10-22T23:50:33.106Z,100061.78
2022-10-22T23:52:59.904Z,100053.31
2022-10-22T23:55:26.561Z,100059.59
2022-10-22T23:57:53.324Z,100067.38
